sensor_id;sensor_type;location;lat;lon;timestamp;pressure;altitude;pressure_sealevel;temperature;humidity
68807;BME280;55800;54.272;18.558;2023-03-03T00:01:46;101349.00;;;-0.18;74.51
68807;BME280;55800;54.272;18.558;2023-03-03T00:04:15;101348.09;;;-0.22;74.34
68807;BME280;55800;54.272;18.558;2023-03-03T00:06:44;101348.09;;;-0.22;74.77
68807;BME280;55800;54.272;18.558;2023-03-03T00:09:14;101345.47;;;-0.20;74.19
68807;BME280;55800;54.272;18.558;2023-03-03T00:11:43;101327.03;;;-0.23;74.82
68807;BME280;55800;54.272;18.558;2023-03-03T00:14:22;101334.88;;;-0.26;74.92
68807;BME280;55800;54.272;18.558;2023-03-03T00:16:54;101327.91;;;-0.24;74.63
68807;BME280;55800;54.272;18.558;2023-03-03T00:19:24;101335.78;;;-0.23;74.71
68807;BME280;55800;54.272;18.558;2023-03-03T00:21:55;101314.78;;;-0.23;74.32
68807;BME280;55800;54.272;18.558;2023-03-03T00:24:32;101315.59;;;-0.27;75.41
68807;BME280;55800;54.272;18.558;2023-03-03T00:27:17;101316.41;;;-0.32;74.87
68807;BME280;55800;54.272;18.558;2023-03-03T00:29:54;101310.34;;;-0.27;74.55
68807;BME280;55800;54.272;18.558;2023-03-03T00:32:26;101306.88;;;-0.23;74.89
68807;BME280;55800;54.272;18.558;2023-03-03T00:35:07;101303.38;;;-0.25;74.23
68807;BME280;55800;54.272;18.558;2023-03-03T00:37:45;101287.59;;;-0.26;74.81
68807;BME280;55800;54.272;18.558;2023-03-03T00:40:20;101284.00;;;-0.33;75.10
68807;BME280;55800;54.272;18.558;2023-03-03T00:42:52;101266.53;;;-0.29;75.05
68807;BME280;55800;54.272;18.558;2023-03-03T00:45:44;101267.34;;;-0.32;74.72
68807;BME280;55800;54.272;18.558;2023-03-03T00:48:23;101277.84;;;-0.33;74.85
68807;BME280;55800;54.272;18.558;2023-03-03T00:50:54;101284.00;;;-0.34;74.48
68807;BME280;55800;54.272;18.558;2023-03-03T00:53:25;101268.25;;;-0.33;74.26
68807;BME280;55800;54.272;18.558;2023-03-03T00:55:55;101278.75;;;-0.31;74.37
68807;BME280;55800;54.272;18.558;2023-03-03T00:58:25;101284.00;;;-0.33;74.57
68807;BME280;55800;54.272;18.558;2023-03-03T01:00:56;101281.31;;;-0.36;74.63
68807;BME280;55800;54.272;18.558;2023-03-03T01:03:36;101290.09;;;-0.34;74.60
68807;BME280;55800;54.272;18.558;2023-03-03T01:06:06;101286.63;;;-0.33;74.56
68807;BME280;55800;54.272;18.558;2023-03-03T01:08:35;101290.09;;;-0.34;74.69
68807;BME280;55800;54.272;18.558;2023-03-03T01:11:10;101284.84;;;-0.34;74.88
68807;BME280;55800;54.272;18.558;2023-03-03T01:13:43;101273.50;;;-0.31;74.85
68807;BME280;55800;54.272;18.558;2023-03-03T01:16:15;101265.63;;;-0.31;74.02
68807;BME280;55800;54.272;18.558;2023-03-03T01:18:45;101255.09;;;-0.34;74.72
68807;BME280;55800;54.272;18.558;2023-03-03T01:21:14;101248.94;;;-0.36;74.71
68807;BME280;55800;54.272;18.558;2023-03-03T01:23:43;101249.78;;;-0.36;74.62
68807;BME280;55800;54.272;18.558;2023-03-03T01:26:13;101255.03;;;-0.39;74.70
68807;BME280;55800;54.272;18.558;2023-03-03T01:28:42;101255.06;;;-0.36;75.02
68807;BME280;55800;54.272;18.558;2023-03-03T01:31:13;101262.09;;;-0.35;74.82
68807;BME280;55800;54.272;18.558;2023-03-03T01:33:42;101252.41;;;-0.37;74.82
68807;BME280;55800;54.272;18.558;2023-03-03T01:36:12;101245.44;;;-0.35;74.51
68807;BME280;55800;54.272;18.558;2023-03-03T01:38:41;101252.44;;;-0.36;74.95
68807;BME280;55800;54.272;18.558;2023-03-03T01:41:10;101241.84;;;-0.42;74.08
68807;BME280;55800;54.272;18.558;2023-03-03T01:43:43;101248.00;;;-0.40;74.80
68807;BME280;55800;54.272;18.558;2023-03-03T01:46:40;101241.97;;;-0.33;74.57
68807;BME280;55800;54.272;18.558;2023-03-03T01:49:13;101244.59;;;-0.33;74.57
68807;BME280;55800;54.272;18.558;2023-03-03T01:51:48;101244.53;;;-0.39;75.04
68807;BME280;55800;54.272;18.558;2023-03-03T01:54:23;101246.28;;;-0.38;75.26
68807;BME280;55800;54.272;18.558;2023-03-03T01:56:56;101248.94;;;-0.36;75.18
68807;BME280;55800;54.272;18.558;2023-03-03T01:59:29;101247.16;;;-0.36;75.62
68807;BME280;55800;54.272;18.558;2023-03-03T02:02:01;101236.66;;;-0.37;75.88
68807;BME280;55800;54.272;18.558;2023-03-03T02:04:31;101234.03;;;-0.36;75.51
68807;BME280;55800;54.272;18.558;2023-03-03T02:07:05;101226.19;;;-0.34;75.91
68807;BME280;55800;54.272;18.558;2023-03-03T02:09:42;101228.84;;;-0.33;76.24
68807;BME280;55800;54.272;18.558;2023-03-03T02:12:16;101223.59;;;-0.33;76.11
68807;BME280;55800;54.272;18.558;2023-03-03T02:14:46;101224.47;;;-0.29;76.46
68807;BME280;55800;54.272;18.558;2023-03-03T02:17:17;101220.13;;;-0.29;76.82
68807;BME280;55800;54.272;18.558;2023-03-03T02:19:51;101228.00;;;-0.30;76.78
68807;BME280;55800;54.272;18.558;2023-03-03T02:22:31;101219.28;;;-0.23;76.54
68807;BME280;55800;54.272;18.558;2023-03-03T02:25:05;101223.75;;;-0.18;77.03
68807;BME280;55800;54.272;18.558;2023-03-03T02:27:38;101215.00;;;-0.17;76.82
68807;BME280;55800;54.272;18.558;2023-03-03T02:30:16;101201.91;;;-0.12;76.96
68807;BME280;55800;54.272;18.558;2023-03-03T02:32:47;101204.53;;;-0.11;76.93
68807;BME280;55800;54.272;18.558;2023-03-03T02:35:29;101209.84;;;-0.06;77.69
68807;BME280;55800;54.272;18.558;2023-03-03T02:38:14;101213.38;;;-0.04;77.06
68807;BME280;55800;54.272;18.558;2023-03-03T02:40:52;101200.31;;;0.02;77.34
68807;BME280;55800;54.272;18.558;2023-03-03T02:43:32;101202.94;;;0.02;77.83
68807;BME280;55800;54.272;18.558;2023-03-03T02:46:04;101201.22;;;0.06;77.78
68807;BME280;55800;54.272;18.558;2023-03-03T02:48:34;101204.75;;;0.08;78.01
68807;BME280;55800;54.272;18.558;2023-03-03T02:51:04;101206.50;;;0.09;77.91
68807;BME280;55800;54.272;18.558;2023-03-03T02:53:33;101212.69;;;0.12;78.21
68807;BME280;55800;54.272;18.558;2023-03-03T02:56:03;101210.06;;;0.14;77.89
68807;BME280;55800;54.272;18.558;2023-03-03T02:58:36;101222.34;;;0.18;77.59
68807;BME280;55800;54.272;18.558;2023-03-03T03:01:06;101209.25;;;0.22;78.00
68807;BME280;55800;54.272;18.558;2023-03-03T03:03:37;101212.81;;;0.27;77.68
68807;BME280;55800;54.272;18.558;2023-03-03T03:06:07;101195.28;;;0.26;78.14
68807;BME280;55800;54.272;18.558;2023-03-03T03:08:37;101209.31;;;0.30;77.90
68807;BME280;55800;54.272;18.558;2023-03-03T03:11:06;101206.72;;;0.33;78.14
68807;BME280;55800;54.272;18.558;2023-03-03T03:13:37;101207.63;;;0.35;78.28
68807;BME280;55800;54.272;18.558;2023-03-03T03:16:07;101212.03;;;0.36;77.98
68807;BME280;55800;54.272;18.558;2023-03-03T03:18:37;101203.28;;;0.40;78.53
68807;BME280;55800;54.272;18.558;2023-03-03T03:21:07;101203.31;;;0.43;78.14
68807;BME280;55800;54.272;18.558;2023-03-03T03:23:38;101202.44;;;0.47;78.47
68807;BME280;55800;54.272;18.558;2023-03-03T03:26:08;101208.59;;;0.49;78.23
68807;BME280;55800;54.272;18.558;2023-03-03T03:28:40;101213.91;;;0.53;78.12
68807;BME280;55800;54.272;18.558;2023-03-03T03:31:19;101211.31;;;0.56;77.94
68807;BME280;55800;54.272;18.558;2023-03-03T03:33:49;101213.94;;;0.59;78.24
68807;BME280;55800;54.272;18.558;2023-03-03T03:36:21;101221.00;;;0.62;78.03
68807;BME280;55800;54.272;18.558;2023-03-03T03:38:51;101214.91;;;0.67;78.04
68807;BME280;55800;54.272;18.558;2023-03-03T03:41:22;101218.44;;;0.72;78.06
68807;BME280;55800;54.272;18.558;2023-03-03T03:43:53;101214.09;;;0.76;78.27
68807;BME280;55800;54.272;18.558;2023-03-03T03:46:22;101215.00;;;0.79;78.45
68807;BME280;55800;54.272;18.558;2023-03-03T03:48:52;101210.66;;;0.86;78.17
68807;BME280;55800;54.272;18.558;2023-03-03T03:51:21;101209.78;;;0.87;78.12
68807;BME280;55800;54.272;18.558;2023-03-03T03:53:51;101207.16;;;0.90;77.69
68807;BME280;55800;54.272;18.558;2023-03-03T03:56:20;101198.41;;;0.96;78.16
68807;BME280;55800;54.272;18.558;2023-03-03T03:58:55;101207.25;;;0.99;77.72
68807;BME280;55800;54.272;18.558;2023-03-03T04:01:24;101207.25;;;1.02;77.78
68807;BME280;55800;54.272;18.558;2023-03-03T04:03:54;101208.13;;;1.03;77.79
68807;BME280;55800;54.272;18.558;2023-03-03T04:06:24;101210.75;;;1.04;77.84
68807;BME280;55800;54.272;18.558;2023-03-03T04:08:54;101210.78;;;1.07;77.76
68807;BME280;55800;54.272;18.558;2023-03-03T04:11:25;101215.19;;;1.11;77.39
68807;BME280;55800;54.272;18.558;2023-03-03T04:13:56;101199.44;;;1.16;77.53
68807;BME280;55800;54.272;18.558;2023-03-03T04:16:27;101198.56;;;1.20;77.47
68807;BME280;55800;54.272;18.558;2023-03-03T04:18:56;101191.56;;;1.20;77.68
68807;BME280;55800;54.272;18.558;2023-03-03T04:21:25;101207.34;;;1.20;77.97
68807;BME280;55800;54.272;18.558;2023-03-03T04:23:58;101211.78;;;1.23;77.97
68807;BME280;55800;54.272;18.558;2023-03-03T04:26:29;101198.59;;;1.24;78.04
68807;BME280;55800;54.272;18.558;2023-03-03T04:29:02;101189.88;;;1.31;77.67
68807;BME280;55800;54.272;18.558;2023-03-03T04:31:32;101196.03;;;1.33;77.49
68807;BME280;55800;54.272;18.558;2023-03-03T04:34:03;101199.50;;;1.34;77.70
68807;BME280;55800;54.272;18.558;2023-03-03T04:36:32;101210.94;;;1.33;78.07
68807;BME280;55800;54.272;18.558;2023-03-03T04:39:02;101202.16;;;1.38;77.73
68807;BME280;55800;54.272;18.558;2023-03-03T04:41:32;101184.59;;;1.40;78.11
68807;BME280;55800;54.272;18.558;2023-03-03T04:44:03;101177.63;;;1.44;77.81
68807;BME280;55800;54.272;18.558;2023-03-03T04:46:32;101171.47;;;1.43;78.17
68807;BME280;55800;54.272;18.558;2023-03-03T04:49:04;101144.25;;;1.47;78.33
68807;BME280;55800;54.272;18.558;2023-03-03T04:51:38;101137.25;;;1.52;77.85
68807;BME280;55800;54.272;18.558;2023-03-03T04:54:07;101139.03;;;1.56;78.01
68807;BME280;55800;54.272;18.558;2023-03-03T04:56:36;101142.50;;;1.55;78.16
68807;BME280;55800;54.272;18.558;2023-03-03T04:59:07;101140.78;;;1.59;77.76
68807;BME280;55800;54.272;18.558;2023-03-03T05:01:37;101150.47;;;1.63;77.56
68807;BME280;55800;54.272;18.558;2023-03-03T05:04:07;101134.63;;;1.68;77.90
68807;BME280;55800;54.272;18.558;2023-03-03T05:06:36;101130.25;;;1.73;77.56
68807;BME280;55800;54.272;18.558;2023-03-03T05:09:06;101126.75;;;1.71;77.37
68807;BME280;55800;54.272;18.558;2023-03-03T05:11:36;101118.84;;;1.75;77.42
68807;BME280;55800;54.272;18.558;2023-03-03T05:14:07;101132.91;;;1.76;77.26
68807;BME280;55800;54.272;18.558;2023-03-03T05:16:36;101137.31;;;1.80;77.06
68807;BME280;55800;54.272;18.558;2023-03-03T05:19:06;101154.88;;;1.84;77.12
68807;BME280;55800;54.272;18.558;2023-03-03T05:21:35;101147.88;;;1.86;77.33
68807;BME280;55800;54.272;18.558;2023-03-03T05:24:10;101151.38;;;1.88;77.50
68807;BME280;55800;54.272;18.558;2023-03-03T05:26:40;101152.25;;;1.88;77.59
68807;BME280;55800;54.272;18.558;2023-03-03T05:29:11;101150.50;;;1.93;77.68
68807;BME280;55800;54.272;18.558;2023-03-03T05:31:41;101157.53;;;1.96;76.71
68807;BME280;55800;54.272;18.558;2023-03-03T05:34:12;101156.66;;;1.98;76.98
68807;BME280;55800;54.272;18.558;2023-03-03T05:36:41;101155.81;;;2.01;77.07
68807;BME280;55800;54.272;18.558;2023-03-03T05:39:11;101150.50;;;2.02;77.62
68807;BME280;55800;54.272;18.558;2023-03-03T05:41:40;101153.16;;;2.04;77.22
68807;BME280;55800;54.272;18.558;2023-03-03T05:44:11;101155.78;;;2.08;77.19
68807;BME280;55800;54.272;18.558;2023-03-03T05:46:40;101166.34;;;2.07;77.42
68807;BME280;55800;54.272;18.558;2023-03-03T05:49:10;101169.00;;;2.07;77.51
68807;BME280;55800;54.272;18.558;2023-03-03T05:51:39;101171.63;;;2.13;77.50
68807;BME280;55800;54.272;18.558;2023-03-03T05:54:09;101168.13;;;2.14;77.19
68807;BME280;55800;54.272;18.558;2023-03-03T05:56:38;101163.72;;;2.13;77.40
68807;BME280;55800;54.272;18.558;2023-03-03T05:59:08;101167.25;;;2.18;77.32
68807;BME280;55800;54.272;18.558;2023-03-03T06:01:39;101167.25;;;2.18;77.59
68807;BME280;55800;54.272;18.558;2023-03-03T06:04:08;101169.88;;;2.24;76.91
68807;BME280;55800;54.272;18.558;2023-03-03T06:06:38;101171.66;;;2.26;76.96
68807;BME280;55800;54.272;18.558;2023-03-03T06:09:07;101169.00;;;2.28;77.26
68807;BME280;55800;54.272;18.558;2023-03-03T06:11:37;101176.03;;;2.32;76.88
68807;BME280;55800;54.272;18.558;2023-03-03T06:14:06;101181.31;;;2.35;76.81
68807;BME280;55800;54.272;18.558;2023-03-03T06:16:37;101176.03;;;2.36;76.81
68807;BME280;55800;54.272;18.558;2023-03-03T06:19:07;101169.88;;;2.42;76.86
68807;BME280;55800;54.272;18.558;2023-03-03T06:21:36;101180.44;;;2.44;76.72
68807;BME280;55800;54.272;18.558;2023-03-03T06:24:06;101176.03;;;2.44;76.91
68807;BME280;55800;54.272;18.558;2023-03-03T06:26:35;101172.53;;;2.50;76.54
68807;BME280;55800;54.272;18.558;2023-03-03T06:29:04;101177.78;;;2.51;76.32
68807;BME280;55800;54.272;18.558;2023-03-03T06:31:34;101176.91;;;2.54;76.32
68807;BME280;55800;54.272;18.558;2023-03-03T06:34:05;101181.31;;;2.56;76.25
68807;BME280;55800;54.272;18.558;2023-03-03T06:36:35;101176.91;;;2.61;76.11
68807;BME280;55800;54.272;18.558;2023-03-03T06:39:04;101180.44;;;2.65;75.95
68807;BME280;55800;54.272;18.558;2023-03-03T06:41:33;101185.72;;;2.66;76.12
68807;BME280;55800;54.272;18.558;2023-03-03T06:44:03;101186.59;;;2.68;75.92
68807;BME280;55800;54.272;18.558;2023-03-03T06:46:32;101177.81;;;2.69;75.97
68807;BME280;55800;54.272;18.558;2023-03-03T06:49:03;101174.28;;;2.69;76.09
68807;BME280;55800;54.272;18.558;2023-03-03T06:51:34;101181.31;;;2.71;75.82
68807;BME280;55800;54.272;18.558;2023-03-03T06:54:10;101182.19;;;2.73;76.00
68807;BME280;55800;54.272;18.558;2023-03-03T06:56:41;101182.19;;;2.78;75.93
68807;BME280;55800;54.272;18.558;2023-03-03T06:59:13;101182.16;;;2.81;76.04
68807;BME280;55800;54.272;18.558;2023-03-03T07:01:44;101183.06;;;2.86;75.84
68807;BME280;55800;54.272;18.558;2023-03-03T07:04:26;101185.69;;;2.92;75.83
68807;BME280;55800;54.272;18.558;2023-03-03T07:06:59;101196.22;;;2.98;75.66
68807;BME280;55800;54.272;18.558;2023-03-03T07:09:30;101190.94;;;2.99;75.49
68807;BME280;55800;54.272;18.558;2023-03-03T07:12:01;101188.28;;;3.04;75.48
68807;BME280;55800;54.272;18.558;2023-03-03T07:14:35;101197.09;;;3.09;75.41
68807;BME280;55800;54.272;18.558;2023-03-03T07:17:13;101188.28;;;3.11;75.28
68807;BME280;55800;54.272;18.558;2023-03-03T07:19:46;101191.78;;;3.16;75.15
68807;BME280;55800;54.272;18.558;2023-03-03T07:22:18;101197.94;;;3.17;75.07
68807;BME280;55800;54.272;18.558;2023-03-03T07:24:50;101201.47;;;3.17;75.18
68807;BME280;55800;54.272;18.558;2023-03-03T07:27:23;101210.25;;;3.26;74.82
68807;BME280;55800;54.272;18.558;2023-03-03T07:29:54;101197.91;;;3.26;74.92
68807;BME280;55800;54.272;18.558;2023-03-03T07:32:34;101198.78;;;3.28;74.79
68807;BME280;55800;54.272;18.558;2023-03-03T07:35:28;101192.63;;;3.31;74.74
68807;BME280;55800;54.272;18.558;2023-03-03T07:38:15;101193.47;;;3.36;74.54
68807;BME280;55800;54.272;18.558;2023-03-03T07:40:48;101197.84;;;3.40;74.41
68807;BME280;55800;54.272;18.558;2023-03-03T07:43:36;101198.72;;;3.42;74.67
68807;BME280;55800;54.272;18.558;2023-03-03T07:46:29;101207.50;;;3.53;74.33
68807;BME280;55800;54.272;18.558;2023-03-03T07:49:16;101195.16;;;3.55;74.37
68807;BME280;55800;54.272;18.558;2023-03-03T07:51:53;101189.84;;;3.62;74.06
68807;BME280;55800;54.272;18.558;2023-03-03T07:54:30;101194.22;;;3.65;74.04
68807;BME280;55800;54.272;18.558;2023-03-03T07:57:14;101192.47;;;3.67;74.22
68807;BME280;55800;54.272;18.558;2023-03-03T07:59:48;101190.66;;;3.73;74.19
68807;BME280;55800;54.272;18.558;2023-03-03T08:02:37;101202.09;;;3.75;74.03
68807;BME280;55800;54.272;18.558;2023-03-03T08:05:29;101200.31;;;3.80;73.98
68807;BME280;55800;54.272;18.558;2023-03-03T08:08:27;101185.31;;;3.85;73.83
68807;BME280;55800;54.272;18.558;2023-03-03T08:10:59;101195.88;;;3.91;73.75
68807;BME280;55800;54.272;18.558;2023-03-03T08:13:34;101187.03;;;3.92;73.55
68807;BME280;55800;54.272;18.558;2023-03-03T08:16:24;101179.03;;;4.02;73.39
68807;BME280;55800;54.272;18.558;2023-03-03T08:19:02;101171.97;;;4.07;73.44
68807;BME280;55800;54.272;18.558;2023-03-03T08:21:33;101171.91;;;4.14;73.17
68807;BME280;55800;54.272;18.558;2023-03-03T08:24:05;101177.19;;;4.14;73.22
68807;BME280;55800;54.272;18.558;2023-03-03T08:26:35;101171.88;;;4.19;73.01
68807;BME280;55800;54.272;18.558;2023-03-03T08:29:04;101173.63;;;4.21;73.24
68807;BME280;55800;54.272;18.558;2023-03-03T08:31:33;101172.69;;;4.25;72.70
68807;BME280;55800;54.272;18.558;2023-03-03T08:34:09;101177.09;;;4.25;72.98
68807;BME280;55800;54.272;18.558;2023-03-03T08:36:38;101181.50;;;4.29;72.73
68807;BME280;55800;54.272;18.558;2023-03-03T08:39:09;101177.94;;;4.33;72.67
68807;BME280;55800;54.272;18.558;2023-03-03T08:41:38;101180.59;;;4.34;72.62
68807;BME280;55800;54.272;18.558;2023-03-03T08:44:11;101178.75;;;4.39;72.73
68807;BME280;55800;54.272;18.558;2023-03-03T08:46:40;101180.50;;;4.45;72.46
68807;BME280;55800;54.272;18.558;2023-03-03T08:49:11;101190.16;;;4.49;72.61
68807;BME280;55800;54.272;18.558;2023-03-03T08:51:40;101186.59;;;4.54;72.18
68807;BME280;55800;54.272;18.558;2023-03-03T08:54:11;101184.78;;;4.59;71.92
68807;BME280;55800;54.272;18.558;2023-03-03T08:56:40;101183.91;;;4.57;71.65
68807;BME280;55800;54.272;18.558;2023-03-03T08:59:09;101185.66;;;4.60;71.69
68807;BME280;55800;54.272;18.558;2023-03-03T09:01:40;101188.28;;;4.63;71.71
68807;BME280;55800;54.272;18.558;2023-03-03T09:04:11;101186.50;;;4.66;71.49
68807;BME280;55800;54.272;18.558;2023-03-03T09:06:41;101189.16;;;4.66;71.30
68807;BME280;55800;54.272;18.558;2023-03-03T09:09:12;101195.31;;;4.68;71.38
68807;BME280;55800;54.272;18.558;2023-03-03T09:11:42;101194.41;;;4.69;70.88
68807;BME280;55800;54.272;18.558;2023-03-03T09:14:13;101188.19;;;4.72;71.13
68807;BME280;55800;54.272;18.558;2023-03-03T09:16:48;101194.34;;;4.77;71.10
68807;BME280;55800;54.272;18.558;2023-03-03T09:19:23;101192.53;;;4.81;71.05
68807;BME280;55800;54.272;18.558;2023-03-03T09:21:55;101167.78;;;4.85;70.69
68807;BME280;55800;54.272;18.558;2023-03-03T09:24:29;101175.72;;;4.85;71.14
68807;BME280;55800;54.272;18.558;2023-03-03T09:26:59;101181.00;;;4.85;70.47
68807;BME280;55800;54.272;18.558;2023-03-03T09:29:34;101178.38;;;4.85;70.74
68807;BME280;55800;54.272;18.558;2023-03-03T09:32:21;101178.34;;;4.86;70.58
68807;BME280;55800;54.272;18.558;2023-03-03T09:34:53;101175.69;;;4.88;70.72
68807;BME280;55800;54.272;18.558;2023-03-03T09:37:26;101181.00;;;4.86;70.45
68807;BME280;55800;54.272;18.558;2023-03-03T09:39:57;101183.66;;;4.88;70.30
68807;BME280;55800;54.272;18.558;2023-03-03T09:42:52;101188.97;;;4.85;70.13
68807;BME280;55800;54.272;18.558;2023-03-03T09:45:47;101180.13;;;4.86;70.17
68807;BME280;55800;54.272;18.558;2023-03-03T09:48:44;101180.13;;;4.84;70.30
68807;BME280;55800;54.272;18.558;2023-03-03T09:54:23;101180.13;;;4.87;70.05
68807;BME280;55800;54.272;18.558;2023-03-03T09:57:06;101165.09;;;4.88;70.21
68807;BME280;55800;54.272;18.558;2023-03-03T09:59:48;101181.88;;;4.84;70.10
68807;BME280;55800;54.272;18.558;2023-03-03T10:02:34;101174.84;;;4.84;70.19
68807;BME280;55800;54.272;18.558;2023-03-03T10:05:18;101158.00;;;4.91;70.28
68807;BME280;55800;54.272;18.558;2023-03-03T10:07:59;101167.69;;;4.94;70.09
68807;BME280;55800;54.272;18.558;2023-03-03T10:10:47;101162.34;;;4.97;70.09
68807;BME280;55800;54.272;18.558;2023-03-03T10:13:30;101158.75;;;5.01;69.86
68807;BME280;55800;54.272;18.558;2023-03-03T10:16:27;101149.91;;;5.03;69.75
68807;BME280;55800;54.272;18.558;2023-03-03T10:19:03;101149.88;;;5.05;69.61
68807;BME280;55800;54.272;18.558;2023-03-03T10:21:46;101147.25;;;5.03;69.96
68807;BME280;55800;54.272;18.558;2023-03-03T10:24:27;101139.31;;;5.03;69.80
68807;BME280;55800;54.272;18.558;2023-03-03T10:27:11;101144.56;;;5.08;69.66
68807;BME280;55800;54.272;18.558;2023-03-03T10:29:57;101148.00;;;5.16;69.65
68807;BME280;55800;54.272;18.558;2023-03-03T10:32:48;101149.72;;;5.18;69.56
68807;BME280;55800;54.272;18.558;2023-03-03T10:35:37;101156.72;;;5.24;69.08
68807;BME280;55800;54.272;18.558;2023-03-03T10:38:18;101147.88;;;5.28;69.01
68807;BME280;55800;54.272;18.558;2023-03-03T10:40:53;101144.31;;;5.29;69.08
68807;BME280;55800;54.272;18.558;2023-03-03T10:43:33;101140.78;;;5.28;68.87
68807;BME280;55800;54.272;18.558;2023-03-03T10:46:33;101141.59;;;5.33;68.71
68807;BME280;55800;54.272;18.558;2023-03-03T10:49:19;101141.50;;;5.41;69.14
68807;BME280;55800;54.272;18.558;2023-03-03T10:52:02;101145.84;;;5.45;68.64
68807;BME280;55800;54.272;18.558;2023-03-03T10:54:48;101145.84;;;5.48;68.70
68807;BME280;55800;54.272;18.558;2023-03-03T10:57:25;101145.75;;;5.54;68.08
68807;BME280;55800;54.272;18.558;2023-03-03T11:00:15;101141.31;;;5.54;67.93
68807;BME280;55800;54.272;18.558;2023-03-03T11:03:19;101141.28;;;5.59;68.33
68807;BME280;55800;54.272;18.558;2023-03-03T11:05:58;101152.75;;;5.61;68.06
68807;BME280;55800;54.272;18.558;2023-03-03T11:08:35;101147.34;;;5.67;67.94
68807;BME280;55800;54.272;18.558;2023-03-03T11:11:12;101134.94;;;5.69;67.85
68807;BME280;55800;54.272;18.558;2023-03-03T11:13:46;101143.75;;;5.71;67.55
68807;BME280;55800;54.272;18.558;2023-03-03T11:16:31;101142.81;;;5.75;67.43
68807;BME280;55800;54.272;18.558;2023-03-03T11:19:18;101134.75;;;5.81;67.27
68807;BME280;55800;54.272;18.558;2023-03-03T11:21:59;101138.25;;;5.86;67.79
68807;BME280;55800;54.272;18.558;2023-03-03T11:24:44;101138.16;;;5.92;66.88
68807;BME280;55800;54.272;18.558;2023-03-03T11:30:27;101116.91;;;5.95;66.71
68807;BME280;55800;54.272;18.558;2023-03-03T11:33:04;101123.00;;;6.02;67.07
68807;BME280;55800;54.272;18.558;2023-03-03T11:35:43;101122.94;;;6.05;66.79
68807;BME280;55800;54.272;18.558;2023-03-03T11:38:24;101125.59;;;6.06;66.33
68807;BME280;55800;54.272;18.558;2023-03-03T11:40:58;101114.91;;;6.09;67.03
68807;BME280;55800;54.272;18.558;2023-03-03T11:43:31;101108.66;;;6.15;66.78
68807;BME280;55800;54.272;18.558;2023-03-03T11:46:08;101114.69;;;6.21;66.80
68807;BME280;55800;54.272;18.558;2023-03-03T11:48:45;101110.16;;;6.28;66.32
68807;BME280;55800;54.272;18.558;2023-03-03T11:51:26;101100.44;;;6.28;66.63
68807;BME280;55800;54.272;18.558;2023-03-03T11:54:04;101098.53;;;6.37;65.88
68807;BME280;55800;54.272;18.558;2023-03-03T11:56:40;101083.44;;;6.40;65.74
68807;BME280;55800;54.272;18.558;2023-03-03T11:59:29;101077.16;;;6.43;66.04
68807;BME280;55800;54.272;18.558;2023-03-03T12:02:22;101064.69;;;6.48;65.98
68807;BME280;55800;54.272;18.558;2023-03-03T12:04:56;101060.09;;;6.56;65.44
68807;BME280;55800;54.272;18.558;2023-03-03T12:07:35;101060.94;;;6.59;65.73
68807;BME280;55800;54.272;18.558;2023-03-03T12:10:16;101058.25;;;6.61;65.59
68807;BME280;55800;54.272;18.558;2023-03-03T12:12:51;101049.28;;;6.68;65.76
68807;BME280;55800;54.272;18.558;2023-03-03T12:15:32;101042.91;;;6.75;66.81
68807;BME280;55800;54.272;18.558;2023-03-03T12:18:15;101039.19;;;6.83;65.25
68807;BME280;55800;54.272;18.558;2023-03-03T12:20:58;101044.38;;;6.91;65.86
68807;BME280;55800;54.272;18.558;2023-03-03T12:23:45;101048.72;;;6.95;64.15
68807;BME280;55800;54.272;18.558;2023-03-03T12:26:26;101045.97;;;6.99;65.46
68807;BME280;55800;54.272;18.558;2023-03-03T12:29:04;101041.41;;;7.04;64.62
68807;BME280;55800;54.272;18.558;2023-03-03T12:31:43;101039.59;;;7.06;64.76
68807;BME280;55800;54.272;18.558;2023-03-03T12:34:22;101034.19;;;7.11;64.17
68807;BME280;55800;54.272;18.558;2023-03-03T12:37:02;101021.72;;;7.15;63.92
68807;BME280;55800;54.272;18.558;2023-03-03T12:39:45;101026.06;;;7.17;63.38
68807;BME280;55800;54.272;18.558;2023-03-03T12:42:24;101023.38;;;7.20;63.70
68807;BME280;55800;54.272;18.558;2023-03-03T12:45:04;101015.25;;;7.26;62.61
68807;BME280;55800;54.272;18.558;2023-03-03T12:47:44;101012.53;;;7.28;62.81
68807;BME280;55800;54.272;18.558;2023-03-03T12:50:26;101016.88;;;7.33;63.04
68807;BME280;55800;54.272;18.558;2023-03-03T12:53:07;101013.22;;;7.37;63.18
68807;BME280;55800;54.272;18.558;2023-03-03T12:55:50;101016.78;;;7.36;62.04
68807;BME280;55800;54.272;18.558;2023-03-03T12:58:31;101024.75;;;7.38;62.32
68807;BME280;55800;54.272;18.558;2023-03-03T13:01:19;101013.19;;;7.39;61.96
68807;BME280;55800;54.272;18.558;2023-03-03T13:04:02;101009.63;;;7.40;60.96
68807;BME280;55800;54.272;18.558;2023-03-03T13:06:38;101008.56;;;7.48;61.76
68807;BME280;55800;54.272;18.558;2023-03-03T13:09:25;100990.69;;;7.53;61.78
68807;BME280;55800;54.272;18.558;2023-03-03T13:12:19;100985.19;;;7.61;61.46
68807;BME280;55800;54.272;18.558;2023-03-03T13:14:59;100979.75;;;7.65;62.04
68807;BME280;55800;54.272;18.558;2023-03-03T13:17:36;100992.91;;;7.71;62.43
68807;BME280;55800;54.272;18.558;2023-03-03T13:20:18;100989.16;;;7.78;62.82
68807;BME280;55800;54.272;18.558;2023-03-03T13:22:57;100974.81;;;7.85;61.61
68807;BME280;55800;54.272;18.558;2023-03-03T13:25:39;100973.81;;;7.89;61.43
68807;BME280;55800;54.272;18.558;2023-03-03T13:28:20;100967.50;;;7.94;60.67
68807;BME280;55800;54.272;18.558;2023-03-03T13:30:54;100963.84;;;7.98;60.98
68807;BME280;55800;54.272;18.558;2023-03-03T13:33:27;100962.84;;;8.02;62.22
68807;BME280;55800;54.272;18.558;2023-03-03T13:36:00;100955.56;;;8.08;61.47